sensor_id;sensor_type;location;lat;lon;timestamp;P1;durP1;ratioP1;P2;durP2;ratioP2
57233;SDS011;43090;52.604;13.318;2022-08-02T00:02:18;3.50;;;1.88;;
57233;SDS011;43090;52.604;13.318;2022-08-02T00:04:45;4.68;;;1.67;;
57233;SDS011;43090;52.604;13.318;2022-08-02T00:07:12;3.97;;;2.05;;
57233;SDS011;43090;52.604;13.318;2022-08-02T00:09:40;6.78;;;1.83;;
57233;SDS011;43090;52.604;13.318;2022-08-02T00:12:07;6.60;;;1.98;;
57233;SDS011;43090;52.604;13.318;2022-08-02T00:14:34;5.15;;;1.83;;
57233;SDS011;43090;52.604;13.318;2022-08-02T00:19:28;4.97;;;2.15;;
57233;SDS011;43090;52.604;13.318;2022-08-02T00:21:54;3.05;;;1.90;;
57233;SDS011;43090;52.604;13.318;2022-08-02T00:24:21;2.05;;;1.48;;
57233;SDS011;43090;52.604;13.318;2022-08-02T00:26:56;8.20;;;2.05;;
57233;SDS011;43090;52.604;13.318;2022-08-02T00:29:23;4.38;;;1.85;;
57233;SDS011;43090;52.604;13.318;2022-08-02T00:31:53;5.78;;;1.90;;
57233;SDS011;43090;52.604;13.318;2022-08-02T00:34:19;3.33;;;1.70;;
57233;SDS011;43090;52.604;13.318;2022-08-02T00:39:23;3.72;;;1.80;;
57233;SDS011;43090;52.604;13.318;2022-08-02T00:42:00;4.47;;;1.80;;
57233;SDS011;43090;52.604;13.318;2022-08-02T00:46:54;3.50;;;1.95;;
57233;SDS011;43090;52.604;13.318;2022-08-02T00:49:20;3.92;;;1.85;;
57233;SDS011;43090;52.604;13.318;2022-08-02T00:51:49;7.25;;;2.13;;
57233;SDS011;43090;52.604;13.318;2022-08-02T00:54:18;5.50;;;2.33;;
57233;SDS011;43090;52.604;13.318;2022-08-02T00:56:47;4.68;;;2.00;;
57233;SDS011;43090;52.604;13.318;2022-08-02T00:59:16;6.57;;;2.20;;
57233;SDS011;43090;52.604;13.318;2022-08-02T01:01:43;9.02;;;2.10;;
57233;SDS011;43090;52.604;13.318;2022-08-02T01:04:23;4.60;;;1.85;;
57233;SDS011;43090;52.604;13.318;2022-08-02T01:06:57;3.10;;;1.77;;
57233;SDS011;43090;52.604;13.318;2022-08-02T01:09:25;9.68;;;1.85;;
57233;SDS011;43090;52.604;13.318;2022-08-02T01:11:52;4.00;;;1.98;;
57233;SDS011;43090;52.604;13.318;2022-08-02T01:14:22;3.88;;;1.95;;
57233;SDS011;43090;52.604;13.318;2022-08-02T01:16:51;3.03;;;1.52;;
57233;SDS011;43090;52.604;13.318;2022-08-02T01:19:33;8.38;;;2.20;;
57233;SDS011;43090;52.604;13.318;2022-08-02T01:22:30;10.38;;;2.38;;
57233;SDS011;43090;52.604;13.318;2022-08-02T01:36:33;4.97;;;2.00;;
57233;SDS011;43090;52.604;13.318;2022-08-02T01:39:03;4.82;;;1.60;;
57233;SDS011;43090;52.604;13.318;2022-08-02T01:41:34;5.78;;;1.90;;
57233;SDS011;43090;52.604;13.318;2022-08-02T01:44:02;6.35;;;2.47;;
57233;SDS011;43090;52.604;13.318;2022-08-02T01:46:30;6.22;;;2.08;;
57233;SDS011;43090;52.604;13.318;2022-08-02T01:49:00;4.80;;;1.50;;
57233;SDS011;43090;52.604;13.318;2022-08-02T01:51:35;7.30;;;1.92;;
57233;SDS011;43090;52.604;13.318;2022-08-02T01:54:21;7.03;;;2.40;;
57233;SDS011;43090;52.604;13.318;2022-08-02T01:56:52;4.43;;;1.92;;
57233;SDS011;43090;52.604;13.318;2022-08-02T01:59:20;4.65;;;1.95;;
57233;SDS011;43090;52.604;13.318;2022-08-02T02:01:49;5.05;;;2.15;;
57233;SDS011;43090;52.604;13.318;2022-08-02T02:04:19;2.97;;;2.03;;
57233;SDS011;43090;52.604;13.318;2022-08-02T02:06:48;6.00;;;1.98;;
57233;SDS011;43090;52.604;13.318;2022-08-02T02:09:16;7.60;;;2.25;;
57233;SDS011;43090;52.604;13.318;2022-08-02T02:11:45;7.63;;;2.50;;
57233;SDS011;43090;52.604;13.318;2022-08-02T02:14:33;6.70;;;2.17;;
57233;SDS011;43090;52.604;13.318;2022-08-02T02:17:01;6.28;;;1.92;;
57233;SDS011;43090;52.604;13.318;2022-08-02T02:19:28;7.57;;;2.33;;
57233;SDS011;43090;52.604;13.318;2022-08-02T02:21:58;6.50;;;2.47;;
57233;SDS011;43090;52.604;13.318;2022-08-02T02:24:26;5.38;;;1.80;;
57233;SDS011;43090;52.604;13.318;2022-08-02T02:26:53;3.55;;;1.88;;
57233;SDS011;43090;52.604;13.318;2022-08-02T02:29:20;9.45;;;2.40;;
57233;SDS011;43090;52.604;13.318;2022-08-02T02:31:51;13.80;;;2.20;;
57233;SDS011;43090;52.604;13.318;2022-08-02T02:34:27;7.60;;;2.25;;
57233;SDS011;43090;52.604;13.318;2022-08-02T02:36:58;8.00;;;2.28;;
57233;SDS011;43090;52.604;13.318;2022-08-02T02:39:27;6.32;;;2.28;;
57233;SDS011;43090;52.604;13.318;2022-08-02T02:41:57;9.95;;;3.53;;
57233;SDS011;43090;52.604;13.318;2022-08-02T02:44:29;4.00;;;2.03;;
57233;SDS011;43090;52.604;13.318;2022-08-02T02:46:58;6.78;;;2.92;;
57233;SDS011;43090;52.604;13.318;2022-08-02T02:49:27;9.35;;;2.13;;
57233;SDS011;43090;52.604;13.318;2022-08-02T02:52:00;5.47;;;2.58;;
57233;SDS011;43090;52.604;13.318;2022-08-02T02:54:29;8.10;;;2.78;;
57233;SDS011;43090;52.604;13.318;2022-08-02T02:57:01;10.27;;;2.38;;
57233;SDS011;43090;52.604;13.318;2022-08-02T02:59:29;6.93;;;3.00;;
57233;SDS011;43090;52.604;13.318;2022-08-02T03:01:59;9.43;;;2.70;;
57233;SDS011;43090;52.604;13.318;2022-08-02T03:04:27;12.15;;;3.30;;
57233;SDS011;43090;52.604;13.318;2022-08-02T03:07:15;9.60;;;2.85;;
57233;SDS011;43090;52.604;13.318;2022-08-02T03:09:42;7.13;;;2.60;;
57233;SDS011;43090;52.604;13.318;2022-08-02T03:12:12;9.30;;;2.88;;
57233;SDS011;43090;52.604;13.318;2022-08-02T03:14:45;6.60;;;2.90;;
57233;SDS011;43090;52.604;13.318;2022-08-02T03:17:14;10.30;;;2.63;;
57233;SDS011;43090;52.604;13.318;2022-08-02T03:19:41;13.90;;;2.72;;
57233;SDS011;43090;52.604;13.318;2022-08-02T03:22:08;7.57;;;2.30;;
57233;SDS011;43090;52.604;13.318;2022-08-02T03:24:35;7.22;;;2.05;;
57233;SDS011;43090;52.604;13.318;2022-08-02T03:27:02;8.23;;;2.40;;
57233;SDS011;43090;52.604;13.318;2022-08-02T03:31:59;9.52;;;2.58;;
57233;SDS011;43090;52.604;13.318;2022-08-02T03:36:54;9.05;;;2.45;;
57233;SDS011;43090;52.604;13.318;2022-08-02T03:39:23;7.43;;;2.25;;
57233;SDS011;43090;52.604;13.318;2022-08-02T03:41:50;14.45;;;3.17;;
57233;SDS011;43090;52.604;13.318;2022-08-02T03:44:19;18.60;;;2.88;;
57233;SDS011;43090;52.604;13.318;2022-08-02T03:46:46;10.32;;;2.63;;
57233;SDS011;43090;52.604;13.318;2022-08-02T03:49:13;8.63;;;2.67;;
57233;SDS011;43090;52.604;13.318;2022-08-02T03:51:42;6.93;;;2.33;;
57233;SDS011;43090;52.604;13.318;2022-08-02T03:54:09;7.55;;;2.40;;
57233;SDS011;43090;52.604;13.318;2022-08-02T03:56:37;8.45;;;2.40;;
57233;SDS011;43090;52.604;13.318;2022-08-02T03:59:07;7.45;;;2.28;;
57233;SDS011;43090;52.604;13.318;2022-08-02T04:01:38;8.90;;;2.28;;
57233;SDS011;43090;52.604;13.318;2022-08-02T04:04:05;11.38;;;2.50;;
57233;SDS011;43090;52.604;13.318;2022-08-02T04:06:33;9.27;;;3.10;;
57233;SDS011;43090;52.604;13.318;2022-08-02T04:09:07;9.25;;;2.25;;
57233;SDS011;43090;52.604;13.318;2022-08-02T04:11:34;4.78;;;2.20;;
57233;SDS011;43090;52.604;13.318;2022-08-02T04:16:40;6.22;;;2.50;;
57233;SDS011;43090;52.604;13.318;2022-08-02T04:19:11;6.50;;;2.50;;
57233;SDS011;43090;52.604;13.318;2022-08-02T04:21:42;7.78;;;2.40;;
57233;SDS011;43090;52.604;13.318;2022-08-02T04:24:18;9.00;;;3.03;;
57233;SDS011;43090;52.604;13.318;2022-08-02T04:26:50;10.18;;;3.30;;
57233;SDS011;43090;52.604;13.318;2022-08-02T04:29:42;11.23;;;3.45;;
57233;SDS011;43090;52.604;13.318;2022-08-02T04:32:12;5.78;;;2.58;;
57233;SDS011;43090;52.604;13.318;2022-08-02T04:34:40;9.95;;;3.15;;
57233;SDS011;43090;52.604;13.318;2022-08-02T04:37:31;12.43;;;3.05;;
57233;SDS011;43090;52.604;13.318;2022-08-02T04:39:59;8.55;;;2.75;;
57233;SDS011;43090;52.604;13.318;2022-08-02T04:42:26;7.93;;;2.70;;
57233;SDS011;43090;52.604;13.318;2022-08-02T04:47:19;7.45;;;2.22;;
57233;SDS011;43090;52.604;13.318;2022-08-02T04:50:07;9.90;;;2.80;;
57233;SDS011;43090;52.604;13.318;2022-08-02T04:52:34;12.00;;;3.50;;
57233;SDS011;43090;52.604;13.318;2022-08-02T04:55:00;8.50;;;3.00;;
57233;SDS011;43090;52.604;13.318;2022-08-02T05:00:18;10.50;;;3.95;;
57233;SDS011;43090;52.604;13.318;2022-08-02T05:02:47;7.78;;;3.13;;
57233;SDS011;43090;52.604;13.318;2022-08-02T05:05:20;8.20;;;3.20;;
57233;SDS011;43090;52.604;13.318;2022-08-02T05:07:52;9.13;;;3.35;;
57233;SDS011;43090;52.604;13.318;2022-08-02T05:10:27;7.07;;;3.00;;
57233;SDS011;43090;52.604;13.318;2022-08-02T05:12:56;15.55;;;4.05;;
57233;SDS011;43090;52.604;13.318;2022-08-02T05:15:23;14.30;;;5.15;;
57233;SDS011;43090;52.604;13.318;2022-08-02T05:17:58;12.38;;;5.03;;
57233;SDS011;43090;52.604;13.318;2022-08-02T05:20:36;15.60;;;6.90;;
57233;SDS011;43090;52.604;13.318;2022-08-02T05:23:07;17.27;;;6.25;;
57233;SDS011;43090;52.604;13.318;2022-08-02T05:25:34;16.77;;;7.13;;
57233;SDS011;43090;52.604;13.318;2022-08-02T05:30:28;21.90;;;6.25;;
57233;SDS011;43090;52.604;13.318;2022-08-02T05:33:00;17.17;;;5.72;;
57233;SDS011;43090;52.604;13.318;2022-08-02T05:35:32;14.60;;;6.50;;
57233;SDS011;43090;52.604;13.318;2022-08-02T05:38:07;14.82;;;5.95;;
57233;SDS011;43090;52.604;13.318;2022-08-02T05:40:35;10.23;;;4.60;;
57233;SDS011;43090;52.604;13.318;2022-08-02T05:43:20;10.57;;;4.85;;
57233;SDS011;43090;52.604;13.318;2022-08-02T05:45:49;9.18;;;3.20;;
57233;SDS011;43090;52.604;13.318;2022-08-02T05:48:20;7.45;;;3.00;;
57233;SDS011;43090;52.604;13.318;2022-08-02T05:51:10;16.98;;;3.15;;
57233;SDS011;43090;52.604;13.318;2022-08-02T05:56:44;7.55;;;2.55;;
57233;SDS011;43090;52.604;13.318;2022-08-02T05:59:31;12.77;;;2.88;;
57233;SDS011;43090;52.604;13.318;2022-08-02T06:02:16;10.13;;;1.92;;
57233;SDS011;43090;52.604;13.318;2022-08-02T06:05:15;11.82;;;2.53;;
57233;SDS011;43090;52.604;13.318;2022-08-02T06:07:47;10.13;;;2.03;;
57233;SDS011;43090;52.604;13.318;2022-08-02T06:10:15;9.05;;;2.40;;
57233;SDS011;43090;52.604;13.318;2022-08-02T06:12:48;8.30;;;2.22;;
57233;SDS011;43090;52.604;13.318;2022-08-02T06:15:19;6.43;;;2.33;;
57233;SDS011;43090;52.604;13.318;2022-08-02T06:17:53;9.73;;;2.22;;
57233;SDS011;43090;52.604;13.318;2022-08-02T06:20:29;11.25;;;2.20;;
57233;SDS011;43090;52.604;13.318;2022-08-02T06:23:06;12.70;;;2.72;;
57233;SDS011;43090;52.604;13.318;2022-08-02T06:25:38;10.90;;;2.63;;
57233;SDS011;43090;52.604;13.318;2022-08-02T06:28:19;9.70;;;2.80;;
57233;SDS011;43090;52.604;13.318;2022-08-02T06:30:46;11.65;;;2.20;;
57233;SDS011;43090;52.604;13.318;2022-08-02T06:33:13;12.20;;;2.33;;
57233;SDS011;43090;52.604;13.318;2022-08-02T06:38:14;16.88;;;2.28;;
57233;SDS011;43090;52.604;13.318;2022-08-02T06:40:48;13.07;;;2.30;;
57233;SDS011;43090;52.604;13.318;2022-08-02T06:45:57;14.23;;;2.80;;
57233;SDS011;43090;52.604;13.318;2022-08-02T06:51:13;10.27;;;1.83;;
57233;SDS011;43090;52.604;13.318;2022-08-02T06:56:10;6.97;;;1.55;;
57233;SDS011;43090;52.604;13.318;2022-08-02T06:58:37;9.32;;;1.88;;
57233;SDS011;43090;52.604;13.318;2022-08-02T07:01:05;6.72;;;1.65;;
57233;SDS011;43090;52.604;13.318;2022-08-02T07:03:36;8.38;;;1.80;;
57233;SDS011;43090;52.604;13.318;2022-08-02T07:06:07;10.38;;;1.90;;
57233;SDS011;43090;52.604;13.318;2022-08-02T07:08:34;5.35;;;1.65;;
57233;SDS011;43090;52.604;13.318;2022-08-02T07:11:07;7.93;;;1.85;;
57233;SDS011;43090;52.604;13.318;2022-08-02T07:13:34;16.55;;;2.30;;
57233;SDS011;43090;52.604;13.318;2022-08-02T07:16:05;5.25;;;1.60;;
57233;SDS011;43090;52.604;13.318;2022-08-02T07:18:33;11.45;;;2.70;;
57233;SDS011;43090;52.604;13.318;2022-08-02T07:21:00;16.15;;;1.67;;
57233;SDS011;43090;52.604;13.318;2022-08-02T07:23:26;11.93;;;2.30;;
57233;SDS011;43090;52.604;13.318;2022-08-02T07:25:53;10.02;;;2.45;;
57233;SDS011;43090;52.604;13.318;2022-08-02T07:28:29;8.73;;;1.97;;
57233;SDS011;43090;52.604;13.318;2022-08-02T07:30:56;12.13;;;1.70;;
57233;SDS011;43090;52.604;13.318;2022-08-02T07:33:22;6.78;;;1.60;;
57233;SDS011;43090;52.604;13.318;2022-08-02T07:36:04;11.55;;;1.77;;
57233;SDS011;43090;52.604;13.318;2022-08-02T07:38:34;8.77;;;1.63;;
57233;SDS011;43090;52.604;13.318;2022-08-02T07:41:02;9.32;;;2.20;;
57233;SDS011;43090;52.604;13.318;2022-08-02T07:45:55;7.00;;;1.63;;
57233;SDS011;43090;52.604;13.318;2022-08-02T07:48:26;11.90;;;1.60;;
57233;SDS011;43090;52.604;13.318;2022-08-02T07:50:52;4.57;;;2.00;;
57233;SDS011;43090;52.604;13.318;2022-08-02T07:56:05;9.55;;;2.10;;
57233;SDS011;43090;52.604;13.318;2022-08-02T08:00:58;6.22;;;1.88;;
57233;SDS011;43090;52.604;13.318;2022-08-02T08:03:25;10.27;;;2.25;;
57233;SDS011;43090;52.604;13.318;2022-08-02T08:05:52;8.25;;;1.40;;
57233;SDS011;43090;52.604;13.318;2022-08-02T08:08:19;8.43;;;1.73;;
57233;SDS011;43090;52.604;13.318;2022-08-02T08:10:46;6.35;;;1.83;;
57233;SDS011;43090;52.604;13.318;2022-08-02T08:13:14;7.20;;;1.65;;
57233;SDS011;43090;52.604;13.318;2022-08-02T08:15:41;8.00;;;1.95;;
57233;SDS011;43090;52.604;13.318;2022-08-02T08:18:17;6.40;;;1.80;;
57233;SDS011;43090;52.604;13.318;2022-08-02T08:20:45;6.10;;;1.85;;
57233;SDS011;43090;52.604;13.318;2022-08-02T08:23:11;11.05;;;1.77;;
57233;SDS011;43090;52.604;13.318;2022-08-02T08:28:07;7.45;;;1.48;;
57233;SDS011;43090;52.604;13.318;2022-08-02T08:33:00;8.63;;;1.45;;
57233;SDS011;43090;52.604;13.318;2022-08-02T08:35:29;6.45;;;1.50;;
57233;SDS011;43090;52.604;13.318;2022-08-02T08:38:01;6.18;;;2.08;;
57233;SDS011;43090;52.604;13.318;2022-08-02T08:40:33;8.73;;;1.77;;
57233;SDS011;43090;52.604;13.318;2022-08-02T08:42:59;16.80;;;2.08;;
57233;SDS011;43090;52.604;13.318;2022-08-02T08:51:06;8.48;;;2.08;;
57233;SDS011;43090;52.604;13.318;2022-08-02T08:53:41;7.22;;;1.55;;
57233;SDS011;43090;52.604;13.318;2022-08-02T08:56:12;9.70;;;1.73;;
57233;SDS011;43090;52.604;13.318;2022-08-02T08:58:44;9.95;;;1.65;;
57233;SDS011;43090;52.604;13.318;2022-08-02T09:01:14;6.28;;;1.52;;
57233;SDS011;43090;52.604;13.318;2022-08-02T09:03:42;12.20;;;2.40;;
57233;SDS011;43090;52.604;13.318;2022-08-02T09:06:09;6.50;;;1.60;;
57233;SDS011;43090;52.604;13.318;2022-08-02T09:08:39;7.55;;;1.77;;
57233;SDS011;43090;52.604;13.318;2022-08-02T09:11:15;8.80;;;1.90;;
57233;SDS011;43090;52.604;13.318;2022-08-02T09:13:51;14.65;;;1.77;;
57233;SDS011;43090;52.604;13.318;2022-08-02T09:18:59;7.85;;;1.45;;
57233;SDS011;43090;52.604;13.318;2022-08-02T09:21:36;9.07;;;1.63;;
57233;SDS011;43090;52.604;13.318;2022-08-02T09:24:12;8.40;;;1.48;;
57233;SDS011;43090;52.604;13.318;2022-08-02T09:26:41;6.82;;;1.38;;
57233;SDS011;43090;52.604;13.318;2022-08-02T09:29:07;3.72;;;1.55;;
57233;SDS011;43090;52.604;13.318;2022-08-02T09:34:00;11.25;;;1.67;;
57233;SDS011;43090;52.604;13.318;2022-08-02T09:36:37;8.50;;;1.38;;
57233;SDS011;43090;52.604;13.318;2022-08-02T09:39:11;9.77;;;1.73;;
57233;SDS011;43090;52.604;13.318;2022-08-02T09:41:40;8.13;;;1.33;;
57233;SDS011;43090;52.604;13.318;2022-08-02T09:44:09;6.30;;;1.58;;
57233;SDS011;43090;52.604;13.318;2022-08-02T09:46:45;11.25;;;1.50;;
57233;SDS011;43090;52.604;13.318;2022-08-02T09:49:15;10.90;;;2.15;;
57233;SDS011;43090;52.604;13.318;2022-08-02T09:54:16;4.85;;;1.25;;
57233;SDS011;43090;52.604;13.318;2022-08-02T09:56:49;5.68;;;1.20;;
57233;SDS011;43090;52.604;13.318;2022-08-02T09:59:16;7.70;;;1.45;;
57233;SDS011;43090;52.604;13.318;2022-08-02T10:01:46;7.35;;;1.55;;
57233;SDS011;43090;52.604;13.318;2022-08-02T10:04:27;5.43;;;1.27;;
57233;SDS011;43090;52.604;13.318;2022-08-02T10:06:59;7.88;;;1.30;;
57233;SDS011;43090;52.604;13.318;2022-08-02T10:09:29;12.38;;;1.52;;
57233;SDS011;43090;52.604;13.318;2022-08-02T10:11:59;7.25;;;1.50;;
57233;SDS011;43090;52.604;13.318;2022-08-02T10:14:28;9.63;;;1.50;;
57233;SDS011;43090;52.604;13.318;2022-08-02T10:17:02;6.32;;;1.63;;
57233;SDS011;43090;52.604;13.318;2022-08-02T10:19:30;6.43;;;1.80;;
57233;SDS011;43090;52.604;13.318;2022-08-02T10:22:19;4.20;;;1.50;;
57233;SDS011;43090;52.604;13.318;2022-08-02T10:27:15;5.53;;;1.33;;
57233;SDS011;43090;52.604;13.318;2022-08-02T10:29:46;4.22;;;1.30;;
57233;SDS011;43090;52.604;13.318;2022-08-02T10:32:21;5.07;;;1.30;;
57233;SDS011;43090;52.604;13.318;2022-08-02T10:34:53;5.80;;;1.50;;
57233;SDS011;43090;52.604;13.318;2022-08-02T10:37:43;7.80;;;1.50;;
57233;SDS011;43090;52.604;13.318;2022-08-02T10:40:12;7.50;;;1.63;;
57233;SDS011;43090;52.604;13.318;2022-08-02T10:42:49;6.10;;;1.38;;
57233;SDS011;43090;52.604;13.318;2022-08-02T10:45:18;6.57;;;1.80;;
57233;SDS011;43090;52.604;13.318;2022-08-02T10:48:02;10.15;;;1.30;;
57233;SDS011;43090;52.604;13.318;2022-08-02T10:53:20;8.80;;;1.13;;
57233;SDS011;43090;52.604;13.318;2022-08-02T10:55:51;4.90;;;1.20;;
57233;SDS011;43090;52.604;13.318;2022-08-02T10:58:24;3.88;;;1.20;;
57233;SDS011;43090;52.604;13.318;2022-08-02T11:00:57;7.07;;;1.90;;
57233;SDS011;43090;52.604;13.318;2022-08-02T11:03:35;9.63;;;1.35;;
57233;SDS011;43090;52.604;13.318;2022-08-02T11:06:10;6.78;;;1.85;;
57233;SDS011;43090;52.604;13.318;2022-08-02T11:11:59;4.18;;;1.17;;
57233;SDS011;43090;52.604;13.318;2022-08-02T11:14:27;9.18;;;1.08;;
57233;SDS011;43090;52.604;13.318;2022-08-02T11:19:24;4.55;;;1.38;;
57233;SDS011;43090;52.604;13.318;2022-08-02T11:22:10;6.05;;;1.33;;
57233;SDS011;43090;52.604;13.318;2022-08-02T11:24:40;6.22;;;1.13;;
57233;SDS011;43090;52.604;13.318;2022-08-02T11:27:08;4.90;;;1.67;;
57233;SDS011;43090;52.604;13.318;2022-08-02T11:29:48;4.78;;;1.83;;
57233;SDS011;43090;52.604;13.318;2022-08-02T11:32:17;8.38;;;1.75;;
57233;SDS011;43090;52.604;13.318;2022-08-02T11:34:56;5.57;;;1.48;;
57233;SDS011;43090;52.604;13.318;2022-08-02T11:37:30;6.72;;;1.52;;
57233;SDS011;43090;52.604;13.318;2022-08-02T11:39:59;10.25;;;1.30;;
57233;SDS011;43090;52.604;13.318;2022-08-02T11:42:30;5.43;;;1.20;;
57233;SDS011;43090;52.604;13.318;2022-08-02T11:45:00;7.72;;;1.60;;
57233;SDS011;43090;52.604;13.318;2022-08-02T11:47:27;2.58;;;1.15;;
57233;SDS011;43090;52.604;13.318;2022-08-02T11:52:34;4.28;;;1.25;;
57233;SDS011;43090;52.604;13.318;2022-08-02T11:55:03;5.95;;;1.50;;
57233;SDS011;43090;52.604;13.318;2022-08-02T11:57:32;5.72;;;1.33;;
57233;SDS011;43090;52.604;13.318;2022-08-02T12:00:19;4.20;;;1.63;;
57233;SDS011;43090;52.604;13.318;2022-08-02T12:02:48;8.32;;;1.60;;
57233;SDS011;43090;52.604;13.318;2022-08-02T12:05:15;7.72;;;2.05;;
57233;SDS011;43090;52.604;13.318;2022-08-02T12:07:45;3.85;;;1.10;;
57233;SDS011;43090;52.604;13.318;2022-08-02T12:12:57;4.95;;;1.55;;
57233;SDS011;43090;52.604;13.318;2022-08-02T12:15:35;8.20;;;1.70;;
57233;SDS011;43090;52.604;13.318;2022-08-02T12:18:08;6.15;;;1.50;;
57233;SDS011;43090;52.604;13.318;2022-08-02T12:21:20;4.78;;;1.35;;
57233;SDS011;43090;52.604;13.318;2022-08-02T12:23:49;9.32;;;1.58;;
57233;SDS011;43090;52.604;13.318;2022-08-02T12:26:26;6.90;;;1.38;;
57233;SDS011;43090;52.604;13.318;2022-08-02T12:28:55;12.05;;;1.92;;
57233;SDS011;43090;52.604;13.318;2022-08-02T12:31:37;2.67;;;1.15;;
57233;SDS011;43090;52.604;13.318;2022-08-02T12:34:23;5.13;;;1.70;;
57233;SDS011;43090;52.604;13.318;2022-08-02T12:36:57;4.53;;;1.02;;
57233;SDS011;43090;52.604;13.318;2022-08-02T12:39:38;4.68;;;1.23;;
57233;SDS011;43090;52.604;13.318;2022-08-02T12:42:11;4.20;;;1.30;;
57233;SDS011;43090;52.604;13.318;2022-08-02T12:47:21;4.63;;;1.20;;
57233;SDS011;43090;52.604;13.318;2022-08-02T12:52:32;5.90;;;1.70;;
57233;SDS011;43090;52.604;13.318;2022-08-02T12:54:59;6.43;;;1.48;;
57233;SDS011;43090;52.604;13.318;2022-08-02T12:57:28;3.50;;;1.40;;
57233;SDS011;43090;52.604;13.318;2022-08-02T12:59:58;7.15;;;1.55;;
57233;SDS011;43090;52.604;13.318;2022-08-02T13:04:51;5.97;;;1.48;;
57233;SDS011;43090;52.604;13.318;2022-08-02T13:07:17;4.30;;;1.40;;
57233;SDS011;43090;52.604;13.318;2022-08-02T13:09:44;9.35;;;1.73;;
57233;SDS011;43090;52.604;13.318;2022-08-02T13:12:12;10.68;;;1.52;;
57233;SDS011;43090;52.604;13.318;2022-08-02T13:14:39;5.18;;;1.50;;
57233;SDS011;43090;52.604;13.318;2022-08-02T13:17:08;6.13;;;1.30;;
57233;SDS011;43090;52.604;13.318;2022-08-02T13:19:36;4.95;;;1.10;;
57233;SDS011;43090;52.604;13.318;2022-08-02T13:22:03;7.97;;;1.23;;
57233;SDS011;43090;52.604;13.318;2022-08-02T13:24:31;3.30;;;1.20;;
57233;SDS011;43090;52.604;13.318;2022-08-02T13:27:18;4.60;;;1.20;;
57233;SDS011;43090;52.604;13.318;2022-08-02T13:29:46;9.18;;;1.40;;
57233;SDS011;43090;52.604;13.318;2022-08-02T13:32:14;3.55;;;0.95;;
57233;SDS011;43090;52.604;13.318;2022-08-02T13:34:43;4.35;;;1.20;;
57233;SDS011;43090;52.604;13.318;2022-08-02T13:37:09;3.20;;;1.02;;
57233;SDS011;43090;52.604;13.318;2022-08-02T13:42:02;7.88;;;1.70;;
57233;SDS011;43090;52.604;13.318;2022-08-02T13:44:31;5.38;;;1.42;;
57233;SDS011;43090;52.604;13.318;2022-08-02T13:46:58;9.48;;;1.38;;
57233;SDS011;43090;52.604;13.318;2022-08-02T13:52:11;3.83;;;1.40;;
57233;SDS011;43090;52.604;13.318;2022-08-02T13:54:38;2.80;;;1.00;;
57233;SDS011;43090;52.604;13.318;2022-08-02T13:59:31;5.10;;;1.17;;
57233;SDS011;43090;52.604;13.318;2022-08-02T14:02:18;2.80;;;1.27;;
57233;SDS011;43090;52.604;13.318;2022-08-02T14:04:44;4.95;;;1.42;;
57233;SDS011;43090;52.604;13.318;2022-08-02T14:07:11;4.25;;;1.48;;
57233;SDS011;43090;52.604;13.318;2022-08-02T14:09:38;6.57;;;1.25;;
57233;SDS011;43090;52.604;13.318;2022-08-02T14:12:06;6.32;;;1.20;;
57233;SDS011;43090;52.604;13.318;2022-08-02T14:14:35;3.88;;;1.15;;
57233;SDS011;43090;52.604;13.318;2022-08-02T14:17:02;5.03;;;1.20;;
57233;SDS011;43090;52.604;13.318;2022-08-02T14:19:28;3.72;;;1.33;;
57233;SDS011;43090;52.604;13.318;2022-08-02T14:21:55;5.85;;;1.60;;
57233;SDS011;43090;52.604;13.318;2022-08-02T14:24:38;4.60;;;1.35;;
57233;SDS011;43090;52.604;13.318;2022-08-02T14:27:05;4.30;;;1.45;;
57233;SDS011;43090;52.604;13.318;2022-08-02T14:29:31;3.85;;;1.15;;
57233;SDS011;43090;52.604;13.318;2022-08-02T14:31:58;4.25;;;1.30;;
57233;SDS011;43090;52.604;13.318;2022-08-02T14:34:25;3.75;;;1.42;;
57233;SDS011;43090;52.604;13.318;2022-08-02T14:36:53;3.10;;;1.10;;
57233;SDS011;43090;52.604;13.318;2022-08-02T14:39:20;10.65;;;2.03;;
57233;SDS011;43090;52.604;13.318;2022-08-02T14:44:25;3.05;;;1.30;;
57233;SDS011;43090;52.604;13.318;2022-08-02T14:46:55;6.00;;;1.10;;
57233;SDS011;43090;52.604;13.318;2022-08-02T14:49:22;4.55;;;1.15;;
57233;SDS011;43090;52.604;13.318;2022-08-02T14:51:52;4.03;;;1.02;;
57233;SDS011;43090;52.604;13.318;2022-08-02T14:54:20;4.57;;;1.30;;
57233;SDS011;43090;52.604;13.318;2022-08-02T14:57:00;3.60;;;1.42;;
57233;SDS011;43090;52.604;13.318;2022-08-02T14:59:28;6.75;;;1.33;;
57233;SDS011;43090;52.604;13.318;2022-08-02T15:01:55;6.53;;;1.42;;
57233;SDS011;43090;52.604;13.318;2022-08-02T15:04:23;2.58;;;1.10;;
57233;SDS011;43090;52.604;13.318;2022-08-02T15:06:50;6.72;;;1.42;;
57233;SDS011;43090;52.604;13.318;2022-08-02T15:09:17;6.63;;;1.17;;
57233;SDS011;43090;52.604;13.318;2022-08-02T15:11:44;7.50;;;1.35;;
57233;SDS011;43090;52.604;13.318;2022-08-02T15:14:14;4.57;;;1.50;;
57233;SDS011;43090;52.604;13.318;2022-08-02T15:16:45;4.43;;;1.35;;
57233;SDS011;43090;52.604;13.318;2022-08-02T15:19:22;3.80;;;1.27;;
57233;SDS011;43090;52.604;13.318;2022-08-02T15:22:01;6.05;;;1.30;;
57233;SDS011;43090;52.604;13.318;2022-08-02T15:24:30;6.35;;;1.40;;
57233;SDS011;43090;52.604;13.318;2022-08-02T15:29:23;9.43;;;2.13;;
57233;SDS011;43090;52.604;13.318;2022-08-02T15:34:18;3.65;;;1.25;;
57233;SDS011;43090;52.604;13.318;2022-08-02T15:39:14;3.20;;;1.30;;
57233;SDS011;43090;52.604;13.318;2022-08-02T15:41:41;7.75;;;1.70;;
57233;SDS011;43090;52.604;13.318;2022-08-02T15:46:35;3.53;;;1.50;;
57233;SDS011;43090;52.604;13.318;2022-08-02T15:49:03;5.28;;;1.42;;
57233;SDS011;43090;52.604;13.318;2022-08-02T15:51:30;4.82;;;1.38;;
57233;SDS011;43090;52.604;13.318;2022-08-02T15:53:57;6.43;;;1.50;;
57233;SDS011;43090;52.604;13.318;2022-08-02T15:56:23;5.38;;;1.55;;
57233;SDS011;43090;52.604;13.318;2022-08-02T15:58:50;7.63;;;1.60;;
57233;SDS011;43090;52.604;13.318;2022-08-02T16:01:22;9.40;;;2.35;;
57233;SDS011;43090;52.604;13.318;2022-08-02T16:03:49;4.25;;;1.67;;
57233;SDS011;43090;52.604;13.318;2022-08-02T16:06:17;4.97;;;1.20;;
57233;SDS011;43090;52.604;13.318;2022-08-02T16:11:20;6.22;;;1.70;;
57233;SDS011;43090;52.604;13.318;2022-08-02T16:13:47;6.40;;;1.40;;
57233;SDS011;43090;52.604;13.318;2022-08-02T16:16:20;7.07;;;1.95;;
57233;SDS011;43090;52.604;13.318;2022-08-02T16:18:48;4.90;;;1.55;;
57233;SDS011;43090;52.604;13.318;2022-08-02T16:21:14;4.65;;;1.73;;
57233;SDS011;43090;52.604;13.318;2022-08-02T16:23:41;4.80;;;1.85;;
57233;SDS011;43090;52.604;13.318;2022-08-02T16:26:27;5.25;;;1.40;;
57233;SDS011;43090;52.604;13.318;2022-08-02T16:28:55;3.55;;;1.40;;
57233;SDS011;43090;52.604;13.318;2022-08-02T16:31:23;6.78;;;1.70;;
57233;SDS011;43090;52.604;13.318;2022-08-02T16:36:21;3.92;;;1.83;;
57233;SDS011;43090;52.604;13.318;2022-08-02T16:38:48;6.28;;;1.40;;
57233;SDS011;43090;52.604;13.318;2022-08-02T16:41:15;6.32;;;1.50;;
57233;SDS011;43090;52.604;13.318;2022-08-02T16:46:08;7.85;;;1.55;;
57233;SDS011;43090;52.604;13.318;2022-08-02T16:48:35;6.30;;;1.33;;
57233;SDS011;43090;52.604;13.318;2022-08-02T16:51:02;3.42;;;1.10;;
57233;SDS011;43090;52.604;13.318;2022-08-02T16:53:29;5.38;;;1.45;;
57233;SDS011;43090;52.604;13.318;2022-08-02T16:56:16;4.40;;;1.33;;
57233;SDS011;43090;52.604;13.318;2022-08-02T16:58:44;7.32;;;1.23;;
57233;SDS011;43090;52.604;13.318;2022-08-02T17:01:12;4.50;;;1.58;;